Time;durP1;ratioP1;P1;durP2;ratioP2;P2;SDS_P1;SDS_P2;PMS_P1;PMS_P2;Temp;Humidity;BMP_temperature;BMP_pressure;BME280_temperature;BME280_humidity;BME280_pressure;Samples;Min_cycle;Max_cycle;Signal;HPM_P1;HPM_P2
2021/04/23 00:00:40;;;;;;;10.15;3.95;;;;;;;3.02;76.61;103168.97;5037792;28;20083;-73
2021/04/23 00:03:15;;;;;;;12.85;4.18;;;;;;;2.99;76.79;103175.00;5035983;28;20080;-71
2021/04/23 00:05:43;;;;;;;10.95;4.20;;;;;;;2.93;76.58;103170.41;5037437;28;20377;-72
2021/04/23 00:08:10;;;;;;;10.38;4.35;;;;;;;2.92;76.71;103181.78;5036637;28;20084;-72
2021/04/23 00:10:37;;;;;;;12.68;4.07;;;;;;;2.89;77.37;103173.75;5036021;28;20084;-72
2021/04/23 00:13:05;;;;;;;10.65;3.78;;;;;;;2.89;76.69;103167.59;5038426;28;20057;-72
2021/04/23 00:15:32;;;;;;;9.02;3.20;;;;;;;2.86;76.66;103168.41;5038925;28;20083;-72
2021/04/23 00:17:59;;;;;;;11.68;4.15;;;;;;;2.83;76.68;103168.28;5037686;28;20060;-73
2021/04/23 00:20:28;;;;;;;9.23;3.83;;;;;;;2.78;76.61;103161.94;5037286;28;20057;-72
2021/04/23 00:22:56;;;;;;;10.13;4.32;;;;;;;2.76;77.29;103163.63;5038238;28;20139;-72
2021/04/23 00:25:27;;;;;;;17.67;4.18;;;;;;;2.69;76.37;103165.13;5035370;28;20061;-73
2021/04/23 00:27:56;;;;;;;12.27;4.20;;;;;;;2.62;76.46;103165.72;5040844;28;20845;-72
2021/04/23 00:30:24;;;;;;;14.77;3.95;;;;;;;2.58;76.84;103172.63;5036593;28;20491;-73
2021/04/23 00:32:52;;;;;;;10.00;4.15;;;;;;;2.54;77.91;103173.34;5042223;28;20111;-73
2021/04/23 00:35:21;;;;;;;9.43;3.67;;;;;;;2.49;76.99;103174.91;5039423;28;20183;-73
2021/04/23 00:37:50;;;;;;;8.02;3.65;;;;;;;2.46;77.72;103166.00;5041883;28;20056;-73
2021/04/23 00:40:23;;;;;;;7.65;3.50;;;;;;;2.44;77.87;103165.94;5041573;28;20520;-72
2021/04/23 00:42:51;;;;;;;12.40;4.28;;;;;;;2.47;79.17;103165.13;5040998;28;20061;-73
2021/04/23 00:45:20;;;;;;;14.35;4.50;;;;;;;2.40;77.08;103169.28;5040085;28;20974;-72
2021/04/23 00:47:51;;;;;;;13.18;4.22;;;;;;;2.40;78.42;103174.53;5037715;28;20053;-75
2021/04/23 00:50:29;;;;;;;13.63;4.30;;;;;;;2.37;78.87;103177.97;5041678;28;20119;-74
2021/04/23 00:52:58;;;;;;;11.07;3.70;;;;;;;2.37;78.86;103171.81;5038026;28;20187;-74
2021/04/23 00:55:25;;;;;;;12.63;3.72;;;;;;;2.34;79.10;103169.06;5037311;28;20394;-73
2021/04/23 00:57:52;;;;;;;8.23;3.63;;;;;;;2.33;78.63;103173.41;5039021;28;20061;-73
2021/04/23 01:00:20;;;;;;;11.18;4.47;;;;;;;2.30;79.14;103170.66;5044232;28;20144;-75
2021/04/23 01:02:47;;;;;;;10.95;3.67;;;;;;;2.26;79.09;103176.63;5039764;28;20434;-73
2021/04/23 01:05:16;;;;;;;11.98;4.38;;;;;;;2.23;79.26;103171.25;5042287;28;20420;-73
2021/04/23 01:07:45;;;;;;;12.90;4.03;;;;;;;2.20;79.13;103169.41;5032652;28;20084;-73
2021/04/23 01:10:15;;;;;;;11.32;4.55;;;;;;;2.18;80.10;103173.72;5039359;28;20115;-74
2021/04/23 01:12:42;;;;;;;11.75;4.38;;;;;;;2.18;80.21;103170.16;5040238;28;20076;-73
2021/04/23 01:15:13;;;;;;;8.73;3.83;;;;;;;2.13;78.79;103170.00;5040592;28;20053;-73
2021/04/23 01:17:40;;;;;;;12.07;4.57;;;;;;;2.06;78.93;103165.34;5041709;28;20061;-73
2021/04/23 01:20:09;;;;;;;16.92;4.70;;;;;;;2.04;79.36;103161.72;5038922;28;20056;-72
2021/04/23 01:22:39;;;;;;;14.57;4.80;;;;;;;2.02;80.00;103159.00;5039356;28;20353;-73
2021/04/23 01:25:07;;;;;;;16.40;4.80;;;;;;;1.95;79.86;103161.34;5037450;28;20065;-72
2021/04/23 01:27:35;;;;;;;10.00;3.50;;;;;;;1.91;79.57;103165.59;5039124;28;20053;-71
2021/04/23 01:30:04;;;;;;;11.73;4.22;;;;;;;1.89;80.46;103158.47;5041069;28;20065;-72
2021/04/23 01:32:31;;;;;;;15.07;4.53;;;;;;;1.92;81.43;103162.13;5040424;28;20118;-71
2021/04/23 01:34:58;;;;;;;9.90;3.83;;;;;;;1.90;81.68;103162.91;5040094;28;20075;-72
2021/04/23 01:37:26;;;;;;;9.30;3.95;;;;;;;1.90;81.59;103162.91;5040722;28;20072;-71
2021/04/23 01:39:56;;;;;;;10.73;3.72;;;;;;;1.84;81.33;103166.19;5041269;28;20060;-73
2021/04/23 01:42:23;;;;;;;10.45;3.75;;;;;;;1.80;80.62;103167.78;5040892;28;20060;-72
2021/04/23 01:44:50;;;;;;;11.30;4.68;;;;;;;1.75;80.99;103166.69;5038642;28;20060;-73
2021/04/23 01:47:17;;;;;;;11.00;4.20;;;;;;;1.72;80.62;103171.84;5039637;28;20136;-72
2021/04/23 01:49:44;;;;;;;11.25;3.70;;;;;;;1.71;80.89;103174.41;5036901;28;20182;-73
2021/04/23 01:52:14;;;;;;;10.98;4.10;;;;;;;1.67;81.49;103173.38;5045745;28;20068;-72
2021/04/23 01:54:42;;;;;;;11.85;4.28;;;;;;;1.68;82.21;103173.41;5037483;28;20266;-73
2021/04/23 01:57:10;;;;;;;9.05;3.92;;;;;;;1.66;81.87;103161.94;5043712;28;20084;-72
2021/04/23 01:59:39;;;;;;;15.43;4.70;;;;;;;1.64;81.42;103168.00;5036768;28;20100;-72
2021/04/23 02:02:06;;;;;;;9.63;4.15;;;;;;;1.62;81.06;103170.56;5042017;28;20057;-73
2021/04/23 02:04:34;;;;;;;10.45;4.20;;;;;;;1.61;81.13;103175.75;5038658;28;20057;-72
2021/04/23 02:07:04;;;;;;;10.52;4.20;;;;;;;1.54;81.33;103177.22;5039748;28;20148;-71
2021/04/23 02:09:32;;;;;;;10.02;3.95;;;;;;;1.52;80.54;103181.53;5034628;28;20065;-72
2021/04/23 02:12:00;;;;;;;10.85;4.40;;;;;;;1.47;80.87;103183.94;5037094;28;20061;-73
2021/04/23 02:14:28;;;;;;;13.35;4.70;;;;;;;1.49;82.89;103189.28;5035884;28;20068;-73
2021/04/23 02:16:55;;;;;;;10.10;4.30;;;;;;;1.43;82.29;103195.19;5035313;28;20056;-72
2021/04/23 02:19:23;;;;;;;14.10;4.78;;;;;;;1.42;82.80;103188.13;5039672;28;20061;-73
2021/04/23 02:21:51;;;;;;;11.43;4.15;;;;;;;1.41;82.86;103183.69;5038121;28;20632;-72
2021/04/23 02:24:19;;;;;;;8.68;3.90;;;;;;;1.40;82.74;103184.53;5040631;28;20464;-72
2021/04/23 02:26:47;;;;;;;9.25;3.92;;;;;;;1.37;82.12;103197.53;5039161;28;20065;-73
2021/04/23 02:29:16;;;;;;;10.75;4.60;;;;;;;1.32;81.95;103190.28;5037498;28;20796;-71
2021/04/23 02:31:47;;;;;;;12.95;4.63;;;;;;;1.28;81.85;103190.16;5037421;28;20049;-73
2021/04/23 02:34:16;;;;;;;11.35;4.30;;;;;;;1.26;81.86;103185.63;5037592;28;20052;-72
2021/04/23 02:36:43;;;;;;;11.65;3.90;;;;;;;1.23;82.19;103196.94;5038457;28;20118;-73
2021/04/23 02:39:13;;;;;;;8.57;3.60;;;;;;;1.23;82.55;103198.69;5039701;28;20067;-73
2021/04/23 02:41:41;;;;;;;13.05;4.82;;;;;;;1.26;84.76;103193.53;5035945;28;20061;-73
2021/04/23 02:44:09;;;;;;;13.27;5.57;;;;;;;1.30;85.09;103203.38;5038761;28;20122;-73
2021/04/23 02:46:36;;;;;;;12.82;4.72;;;;;;;1.27;84.18;103209.38;5035619;28;20229;-73
2021/04/23 02:49:06;;;;;;;12.55;4.10;;;;;;;1.25;84.66;103203.16;5041794;28;20057;-73
2021/04/23 02:51:36;;;;;;;9.10;3.58;;;;;;;1.18;82.84;103202.84;5036591;28;20150;-73
2021/04/23 02:54:04;;;;;;;10.25;4.03;;;;;;;1.15;83.15;103202.69;5035694;28;20048;-72
2021/04/23 02:56:32;;;;;;;9.73;4.68;;;;;;;1.16;84.95;103205.41;5039087;28;20259;-73
2021/04/23 02:58:59;;;;;;;16.67;4.97;;;;;;;1.09;83.73;103201.59;5036654;28;20061;-73
2021/04/23 03:01:29;;;;;;;12.40;4.75;;;;;;;1.13;83.69;103202.63;5036558;28;20065;-72
2021/04/23 03:03:57;;;;;;;12.23;4.72;;;;;;;1.08;83.41;103197.16;5035534;28;21781;-72
2021/04/23 03:06:25;;;;;;;10.68;4.88;;;;;;;1.03;83.42;103200.41;5039089;28;20251;-74
2021/04/23 03:08:52;;;;;;;11.25;4.85;;;;;;;1.02;83.18;103195.97;5035277;28;20069;-74
2021/04/23 03:11:22;;;;;;;10.95;4.28;;;;;;;0.98;83.26;103205.47;5038812;28;20422;-73
2021/04/23 03:13:52;;;;;;;13.57;4.82;;;;;;;0.95;82.74;103207.06;5035706;28;20088;-72
2021/04/23 03:16:19;;;;;;;11.23;4.75;;;;;;;0.91;82.23;103214.81;5043044;28;20060;-72
2021/04/23 03:18:48;;;;;;;13.35;4.80;;;;;;;0.92;83.57;103213.09;5036987;28;20160;-72
2021/04/23 03:21:18;;;;;;;12.38;5.20;;;;;;;0.94;83.77;103216.69;5050853;28;20057;-73
2021/04/23 03:23:46;;;;;;;14.45;4.82;;;;;;;0.91;83.71;103224.44;5035880;28;20144;-72
2021/04/23 03:26:18;;;;;;;16.00;5.10;;;;;;;0.93;83.83;103221.03;5035032;28;20061;-72
2021/04/23 03:28:46;;;;;;;13.02;4.88;;;;;;;0.88;83.50;103226.91;5036583;28;20179;-72
2021/04/23 03:31:14;;;;;;;10.48;4.45;;;;;;;0.87;83.84;103230.34;5035799;28;20057;-72
2021/04/23 03:33:42;;;;;;;15.70;4.88;;;;;;;0.86;83.87;103236.47;5037904;28;20061;-72
2021/04/23 03:36:11;;;;;;;9.82;4.38;;;;;;;0.80;83.20;103225.66;5037314;28;20067;-72
2021/04/23 03:38:40;;;;;;;11.75;4.57;;;;;;;0.80;83.71;103231.81;5040528;28;20061;-72
2021/04/23 03:41:11;;;;;;;11.75;5.03;;;;;;;0.80;84.48;103220.38;5034994;28;20422;-71
2021/04/23 03:43:38;;;;;;;12.50;4.28;;;;;;;0.76;83.92;103223.72;5040533;28;20045;-71
2021/04/23 03:46:06;;;;;;;16.25;6.20;;;;;;;0.72;84.39;103226.19;5035423;28;20053;-73
2021/04/23 03:48:34;;;;;;;22.65;6.78;;;;;;;0.79;85.21;103219.50;5039925;28;20071;-71
2021/04/23 03:51:02;;;;;;;21.27;8.48;;;;;;;0.74;83.91;103228.91;5036978;28;20103;-72
2021/04/23 03:53:29;;;;;;;14.80;6.45;;;;;;;0.72;84.67;103225.31;5036026;28;20147;-72
2021/04/23 03:55:57;;;;;;;13.00;4.53;;;;;;;0.69;84.66;103217.28;5037452;28;20402;-73
2021/04/23 03:58:25;;;;;;;11.13;5.00;;;;;;;0.67;85.00;103219.81;5036754;28;20075;-71
2021/04/23 04:00:56;;;;;;;16.63;4.90;;;;;;;0.68;85.17;103224.28;5038252;28;20072;-72
2021/04/23 04:03:24;;;;;;;18.77;5.90;;;;;;;0.68;85.32;103225.97;5037558;28;20319;-71
2021/04/23 04:05:51;;;;;;;17.83;8.13;;;;;;;0.65;85.23;103217.97;5036928;28;20084;-71
2021/04/23 04:08:19;;;;;;;15.63;7.43;;;;;;;0.61;84.68;103222.16;5042545;28;20087;-72
2021/04/23 04:10:48;;;;;;;17.35;6.97;;;;;;;0.60;84.93;103225.63;5039603;28;20057;-72
2021/04/23 04:13:16;;;;;;;15.88;5.85;;;;;;;0.55;84.67;103224.50;5043008;28;20452;-71
2021/04/23 04:15:45;;;;;;;13.55;5.63;;;;;;;0.55;85.63;103232.41;5038913;28;20064;-71
2021/04/23 04:18:12;;;;;;;11.60;4.90;;;;;;;0.55;85.38;103238.53;5044681;28;20136;-71
2021/04/23 04:20:42;;;;;;;12.25;5.65;;;;;;;0.54;85.54;103234.09;5039284;28;20098;-71
2021/04/23 04:23:14;;;;;;;11.75;4.75;;;;;;;0.52;85.24;103235.75;5045691;28;20056;-71
2021/04/23 04:25:42;;;;;;;12.95;4.90;;;;;;;0.53;85.94;103240.22;5035339;28;20068;-71
2021/04/23 04:28:10;;;;;;;13.68;5.07;;;;;;;0.61;86.80;103245.81;5039056;28;20060;-71
2021/04/23 04:30:38;;;;;;;11.90;4.57;;;;;;;0.57;85.55;103250.88;5038213;28;20064;-71
2021/04/23 04:33:08;;;;;;;10.38;4.82;;;;;;;0.54;85.45;103249.88;5040637;28;20452;-71
2021/04/23 04:35:35;;;;;;;12.85;4.93;;;;;;;0.47;84.85;103255.66;5041765;28;20080;-71
2021/04/23 04:38:03;;;;;;;14.90;5.22;;;;;;;0.49;84.97;103261.00;5037880;28;20096;-72
2021/04/23 04:40:30;;;;;;;11.45;5.47;;;;;;;0.47;85.29;103265.28;5041778;28;20064;-71
2021/04/23 04:42:58;;;;;;;33.42;13.60;;;;;;;0.53;85.86;103263.84;5037683;28;20088;-71
2021/04/23 04:45:28;;;;;;;16.83;8.40;;;;;;;0.58;86.03;103268.41;5042423;28;20053;-71
2021/04/23 04:47:56;;;;;;;16.42;5.47;;;;;;;0.55;85.53;103269.19;5052672;28;20271;-72
2021/04/23 04:50:27;;;;;;;16.52;7.95;;;;;;;0.55;85.60;103279.69;5054146;28;20325;-71
2021/04/23 04:52:55;;;;;;;18.85;7.10;;;;;;;0.54;85.03;103288.38;5042092;28;20138;-72
2021/04/23 04:55:25;;;;;;;14.82;5.45;;;;;;;0.52;84.75;103284.78;5038811;28;20068;-73
2021/04/23 04:57:52;;;;;;;15.60;6.60;;;;;;;0.53;84.96;103282.25;5040864;28;20067;-71
2021/04/23 05:00:20;;;;;;;15.45;5.90;;;;;;;0.58;85.22;103286.81;5039063;28;20073;-70
2021/04/23 05:02:47;;;;;;;17.30;6.65;;;;;;;0.60;85.50;103286.06;5040835;28;20071;-71
2021/04/23 05:05:16;;;;;;;15.45;6.00;;;;;;;0.71;85.83;103282.22;5042055;28;20057;-71
2021/04/23 05:07:44;;;;;;;11.50;4.93;;;;;;;0.73;85.27;103283.22;5038741;28;20079;-72
2021/04/23 05:10:12;;;;;;;16.88;5.80;;;;;;;0.80;85.12;103287.03;5042450;28;20068;-72
2021/04/23 05:12:39;;;;;;;12.05;5.05;;;;;;;0.95;86.28;103291.19;5037345;28;20063;-72
2021/04/23 05:15:08;;;;;;;14.93;5.15;;;;;;;1.06;86.47;103293.50;5039064;28;20064;-72
2021/04/23 05:17:36;;;;;;;12.05;5.05;;;;;;;1.24;86.22;103290.81;5036971;28;20060;-72
2021/04/23 05:20:05;;;;;;;14.40;5.68;;;;;;;1.42;85.86;103297.75;5042963;28;20118;-73
2021/04/23 05:22:33;;;;;;;14.63;5.55;;;;;;;1.62;84.95;103301.25;5037261;28;20068;-73
2021/04/23 05:25:01;;;;;;;14.45;5.35;;;;;;;1.80;84.45;103296.78;5040123;28;20118;-71
2021/04/23 05:27:27;;;;;;;14.18;6.00;;;;;;;2.07;84.44;103293.53;5037853;28;20368;-72
2021/04/23 05:29:54;;;;;;;18.10;6.57;;;;;;;2.35;84.04;103289.41;5037730;28;20063;-72
2021/04/23 05:32:21;;;;;;;15.55;5.47;;;;;;;2.58;83.06;103293.88;5043596;28;20085;-72
2021/04/23 05:34:49;;;;;;;14.40;6.25;;;;;;;2.88;82.60;103285.41;5036096;28;20053;-71
2021/04/23 05:37:16;;;;;;;13.88;5.22;;;;;;;3.21;81.21;103297.19;5041686;28;20091;-71
2021/04/23 05:39:44;;;;;;;15.75;6.05;;;;;;;3.50;80.96;103279.75;5037625;28;20146;-71
2021/04/23 05:42:12;;;;;;;19.25;6.50;;;;;;;3.85;80.00;103288.06;5052105;28;20119;-74
2021/04/23 05:44:40;;;;;;;21.08;7.10;;;;;;;4.16;79.11;103279.41;5037761;28;20347;-74
2021/04/23 05:47:07;;;;;;;13.88;5.40;;;;;;;4.57;78.92;103293.09;5037530;28;20061;-72
2021/04/23 05:49:34;;;;;;;17.63;5.97;;;;;;;4.77;77.99;103285.78;5037869;28;20084;-72
2021/04/23 05:52:04;;;;;;;16.55;5.53;;;;;;;5.12;77.02;103293.88;5038499;28;20087;-73
2021/04/23 05:54:31;;;;;;;15.82;6.65;;;;;;;5.30;76.40;103288.25;5054151;28;20065;-73
2021/04/23 05:56:58;;;;;;;16.35;5.43;;;;;;;5.64;75.17;103290.97;5040875;28;20096;-73
2021/04/23 05:59:26;;;;;;;16.08;5.55;;;;;;;5.94;75.02;103298.81;5042030;28;20560;-74
2021/04/23 06:01:53;;;;;;;24.23;6.28;;;;;;;6.14;73.44;103302.03;5039445;28;20057;-72
2021/04/23 06:04:20;;;;;;;17.30;5.28;;;;;;;6.47;72.51;103301.97;5039054;28;20060;-72
2021/04/23 06:06:47;;;;;;;10.40;4.70;;;;;;;6.71;72.22;103300.78;5037798;28;20084;-72
2021/04/23 06:09:14;;;;;;;13.27;4.85;;;;;;;7.01;71.31;103305.84;5039044;28;20068;-72
2021/04/23 06:11:42;;;;;;;12.35;4.30;;;;;;;7.34;70.96;103307.44;5036737;28;20388;-72
2021/04/23 06:14:09;;;;;;;16.15;5.10;;;;;;;7.52;70.06;103311.34;5039573;28;20064;-73
2021/04/23 06:16:36;;;;;;;11.85;4.95;;;;;;;7.86;68.94;103305.78;5036756;28;20088;-72
2021/04/23 06:19:05;;;;;;;15.00;5.10;;;;;;;8.11;68.54;103308.91;5037442;28;20049;-72
2021/04/23 06:21:33;;;;;;;14.75;4.53;;;;;;;8.09;66.64;103309.72;5041068;28;20079;-73
2021/04/23 06:24:01;;;;;;;13.02;4.18;;;;;;;8.15;66.56;103304.53;5038625;28;20127;-74
2021/04/23 06:26:28;;;;;;;11.27;4.45;;;;;;;8.20;66.07;103311.72;5038301;28;20526;-73
2021/04/23 06:28:55;;;;;;;10.23;4.45;;;;;;;8.70;65.48;103307.22;5038111;28;20065;-73
2021/04/23 06:31:22;;;;;;;11.07;4.97;;;;;;;8.94;64.53;103296.94;5037865;28;20060;-73
2021/04/23 06:33:51;;;;;;;13.25;4.95;;;;;;;9.07;63.49;103297.09;5039132;28;20136;-73
2021/04/23 06:36:20;;;;;;;17.75;4.80;;;;;;;9.12;62.87;103303.38;5034833;28;20443;-74
2021/04/23 06:38:48;;;;;;;10.60;4.68;;;;;;;9.26;62.87;103311.56;5036531;28;20172;-74
2021/04/23 06:41:16;;;;;;;11.60;4.50;;;;;;;9.51;61.69;103315.41;5033410;28;20068;-74
2021/04/23 06:43:44;;;;;;;12.13;4.85;;;;;;;9.30;61.13;103306.28;5035254;28;20057;-74
2021/04/23 06:46:11;;;;;;;13.20;4.35;;;;;;;9.70;61.52;103304.09;5034389;28;20088;-73
2021/04/23 06:48:41;;;;;;;15.02;4.45;;;;;;;9.79;59.84;103310.38;5034358;28;20428;-73
2021/04/23 06:51:10;;;;;;;7.53;3.53;;;;;;;9.87;58.73;103303.38;5038494;28;20061;-73
2021/04/23 06:53:38;;;;;;;10.52;3.80;;;;;;;10.13;58.31;103305.38;5035044;28;20316;-73
2021/04/23 06:56:04;;;;;;;12.82;3.75;;;;;;;10.27;58.00;103299.28;5038901;28;20139;-72
2021/04/23 06:58:31;;;;;;;8.30;3.72;;;;;;;10.37;56.88;103300.31;5033061;28;20163;-73
2021/04/23 07:00:59;;;;;;;12.30;3.72;;;;;;;10.82;57.01;103298.81;5036101;28;20335;-73
2021/04/23 07:03:26;;;;;;;9.85;3.90;;;;;;;10.72;56.90;103310.31;5033207;28;20064;-73
2021/04/23 07:05:55;;;;;;;10.68;3.65;;;;;;;10.31;57.86;103307.34;5036475;28;20068;-73
2021/04/23 07:08:23;;;;;;;11.95;4.10;;;;;;;10.48;55.59;103311.06;5035710;28;20061;-75
2021/04/23 07:10:49;;;;;;;16.50;3.72;;;;;;;11.07;55.28;103306.06;5035023;28;20068;-72
2021/04/23 07:13:17;;;;;;;17.15;3.80;;;;;;;10.80;54.81;103311.28;5034462;28;20502;-73
2021/04/23 07:15:44;;;;;;;10.27;3.38;;;;;;;10.92;53.49;103301.56;5036936;28;20080;-72
2021/04/23 07:18:11;;;;;;;9.27;3.38;;;;;;;10.99;53.40;103303.38;5036027;28;20061;-72
2021/04/23 07:20:41;;;;;;;13.75;3.40;;;;;;;10.87;53.96;103298.84;5030746;28;20115;-72
2021/04/23 07:23:10;;;;;;;12.98;3.08;;;;;;;10.55;53.75;103299.53;5034638;28;20348;-73
2021/04/23 07:25:38;;;;;;;12.55;3.95;;;;;;;10.66;53.47;103310.31;5038178;28;20057;-74
2021/04/23 07:28:06;;;;;;;12.52;3.53;;;;;;;10.42;53.39;103314.59;5036794;28;20148;-73
2021/04/23 07:30:35;;;;;;;9.48;3.08;;;;;;;10.91;52.29;103311.34;5036768;28;20060;-73
2021/04/23 07:33:05;;;;;;;8.45;3.15;;;;;;;11.17;50.58;103307.94;5051860;28;20057;-73
2021/04/23 07:35:33;;;;;;;7.43;2.85;;;;;;;11.15;51.23;103307.94;5034161;28;20068;-74
2021/04/23 07:38:01;;;;;;;8.18;3.17;;;;;;;11.76;50.66;103300.97;5034653;28;20053;-74
2021/04/23 07:40:29;;;;;;;8.95;2.75;;;;;;;11.25;49.08;103299.94;5036843;28;20123;-74
2021/04/23 07:42:59;;;;;;;8.65;3.00;;;;;;;11.31;49.67;103290.16;5036499;28;20387;-73
2021/04/23 07:45:28;;;;;;;8.27;3.13;;;;;;;10.63;49.79;103297.81;5035118;28;20049;-73
2021/04/23 07:47:56;;;;;;;10.25;3.00;;;;;;;11.40;50.82;103290.19;5052884;28;20056;-73
2021/04/23 07:50:27;;;;;;;9.00;2.90;;;;;;;10.97;50.35;103292.69;5031808;28;20591;-75
2021/04/23 07:52:59;;;;;;;9.73;3.45;;;;;;;11.93;48.60;103287.66;5039513;28;20090;-74
2021/04/23 07:55:26;;;;;;;10.07;3.13;;;;;;;12.08;47.98;103294.81;5032263;28;20332;-74
2021/04/23 07:57:54;;;;;;;10.85;3.10;;;;;;;11.70;47.88;103295.63;5042266;28;20113;-72
2021/04/23 08:00:24;;;;;;;10.57;3.08;;;;;;;12.61;46.63;103285.88;5035476;28;20056;-74
2021/04/23 08:02:52;;;;;;;8.20;2.45;;;;;;;12.64;46.09;103288.53;5040495;28;20624;-73
2021/04/23 08:05:24;;;;;;;8.70;2.70;;;;;;;12.77;46.79;103291.19;5037476;28;20635;-73
2021/04/23 08:08:03;;;;;;;10.23;3.17;;;;;;;12.91;44.51;103292.06;5037821;28;20148;-74
2021/04/23 08:10:31;;;;;;;10.43;2.75;;;;;;;13.41;44.81;103292.78;5038906;28;20061;-73
2021/04/23 08:12:59;;;;;;;8.90;2.90;;;;;;;12.85;44.23;103292.94;5036078;28;20061;-73
2021/04/23 08:15:27;;;;;;;11.07;3.80;;;;;;;12.95;45.68;103290.25;5037354;28;20135;-73
2021/04/23 08:17:57;;;;;;;10.18;3.22;;;;;;;12.91;44.32;103289.38;5038908;28;20123;-73
2021/04/23 08:20:25;;;;;;;10.23;3.40;;;;;;;12.43;45.51;103289.47;5038454;28;20064;-73
2021/04/23 08:22:52;;;;;;;9.95;3.55;;;;;;;12.70;45.67;103280.50;5033949;28;20061;-73
2021/04/23 08:25:20;;;;;;;9.32;3.05;;;;;;;12.54;44.71;103283.22;5038805;28;20059;-72
2021/04/23 08:27:48;;;;;;;10.45;3.03;;;;;;;12.47;45.10;103285.88;5035407;28;20083;-73
2021/04/23 08:30:17;;;;;;;10.45;3.30;;;;;;;12.37;45.50;103292.16;5034395;28;20172;-73
2021/04/23 08:32:45;;;;;;;9.15;3.13;;;;;;;11.92;45.93;103289.47;5034316;28;20080;-73
2021/04/23 08:35:13;;;;;;;10.80;2.88;;;;;;;12.80;45.81;103283.16;5035101;28;20067;-73
2021/04/23 08:37:41;;;;;;;10.95;3.50;;;;;;;12.12;46.24;103286.81;5035623;28;20095;-73
2021/04/23 08:40:13;;;;;;;10.48;3.35;;;;;;;12.57;45.71;103278.75;5051989;28;20299;-73
2021/04/23 08:42:41;;;;;;;10.10;3.30;;;;;;;13.18;45.24;103279.47;5037246;28;20440;-73
2021/04/23 08:45:10;;;;;;;12.02;3.97;;;;;;;12.93;44.69;103284.91;5037084;28;20156;-73
2021/04/23 08:47:39;;;;;;;12.45;3.97;;;;;;;13.27;43.95;103285.66;5036156;28;20140;-73
2021/04/23 08:50:13;;;;;;;11.15;3.63;;;;;;;13.01;44.10;103287.56;5035441;28;20056;-74
2021/04/23 08:52:41;;;;;;;13.15;4.10;;;;;;;12.71;44.92;103281.38;5039406;28;20067;-74
2021/04/23 08:55:10;;;;;;;17.42;4.00;;;;;;;13.21;44.89;103284.78;5040566;28;20484;-73
2021/04/23 08:57:37;;;;;;;13.20;4.07;;;;;;;13.56;43.88;103281.09;5038045;28;20068;-73
2021/04/23 09:00:07;;;;;;;10.52;3.90;;;;;;;13.72;42.56;103279.19;5041805;28;20064;-73
2021/04/23 09:02:35;;;;;;;12.30;3.60;;;;;;;12.68;42.83;103279.63;5037864;28;20499;-74
2021/04/23 09:05:04;;;;;;;8.88;3.63;;;;;;;12.88;44.35;103276.88;5041928;28;20419;-74
2021/04/23 09:07:32;;;;;;;11.05;4.13;;;;;;;13.83;43.02;103269.28;5039076;28;20089;-74
2021/04/23 09:10:06;;;;;;;8.35;3.97;;;;;;;13.54;42.54;103274.84;5040161;28;20075;-73
2021/04/23 09:12:33;;;;;;;9.68;3.50;;;;;;;13.45;42.86;103274.00;5039561;28;20065;-72
2021/04/23 09:15:02;;;;;;;10.93;4.30;;;;;;;13.32;43.48;103274.94;5039849;28;20053;-72
2021/04/23 09:17:29;;;;;;;13.02;4.43;;;;;;;13.29;44.71;103279.41;5039683;28;20068;-73
2021/04/23 09:19:58;;;;;;;12.00;4.18;;;;;;;13.44;44.83;103280.25;5036744;28;20069;-73
2021/04/23 09:22:28;;;;;;;10.68;3.88;;;;;;;13.56;44.01;103270.34;5043457;28;20061;-73
2021/04/23 09:25:01;;;;;;;11.52;3.80;;;;;;;14.00;43.15;103270.03;5053244;28;20061;-73
2021/04/23 09:27:32;;;;;;;10.73;4.03;;;;;;;12.63;44.17;103280.50;5042276;28;20079;-74
2021/04/23 09:30:01;;;;;;;13.52;3.90;;;;;;;13.19;44.91;103281.22;5036344;28;20064;-73
2021/04/23 09:32:33;;;;;;;8.32;3.22;;;;;;;12.71;44.74;103273.34;5039842;28;20053;-74
2021/04/23 09:35:02;;;;;;;14.10;4.05;;;;;;;13.77;43.32;103275.59;5034937;28;20049;-74
2021/04/23 09:37:39;;;;;;;10.88;3.75;;;;;;;14.39;42.64;103273.28;5042273;28;20064;-73
2021/04/23 09:40:11;;;;;;;10.20;4.10;;;;;;;13.49;42.55;103277.56;5035511;28;20693;-74
2021/04/23 09:42:47;;;;;;;9.18;3.63;;;;;;;14.91;42.54;103265.59;5040792;28;20178;-72
2021/04/23 09:45:15;;;;;;;11.75;3.72;;;;;;;15.08;40.76;103270.78;5038135;28;20049;-74
2021/04/23 09:47:43;;;;;;;9.88;3.15;;;;;;;14.99;39.97;103265.53;5038902;28;20060;-73
2021/04/23 09:50:12;;;;;;;12.38;3.42;;;;;;;14.68;40.72;103260.50;5039136;28;20049;-73
2021/04/23 09:52:51;;;;;;;10.77;3.85;;;;;;;13.68;42.42;103277.44;5035081;28;20057;-73
2021/04/23 09:55:21;;;;;;;13.45;4.30;;;;;;;14.24;41.52;103269.88;5038076;28;20399;-75
2021/04/23 09:57:51;;;;;;;13.30;4.45;;;;;;;14.63;40.99;103265.94;5038071;28;20053;-75
2021/04/23 10:00:20;;;;;;;9.60;3.70;;;;;;;14.36;41.47;103267.94;5039650;28;20064;-74
2021/04/23 10:02:51;;;;;;;9.98;4.35;;;;;;;15.24;39.95;103272.38;5038804;28;20063;-74
2021/04/23 10:05:38;;;;;;;11.30;4.15;;;;;;;14.96;39.60;103265.56;5036353;28;20088;-74
2021/04/23 10:08:08;;;;;;;14.20;4.63;;;;;;;14.63;40.31;103262.34;5040877;28;20084;-73
2021/04/23 10:10:37;;;;;;;9.13;4.05;;;;;;;15.11;40.67;103266.25;5036578;28;20053;-74
2021/04/23 10:13:06;;;;;;;14.75;4.50;;;;;;;15.19;39.69;103265.25;5040404;28;20568;-73
2021/04/23 10:15:35;;;;;;;14.32;4.28;;;;;;;15.10;39.37;103266.25;5037228;28;20061;-74
2021/04/23 10:18:05;;;;;;;10.48;3.55;;;;;;;15.35;39.35;103271.34;5041462;28;20052;-74
2021/04/23 10:20:34;;;;;;;11.73;4.07;;;;;;;15.92;38.23;103273.22;5036289;28;20093;-73
2021/04/23 10:23:03;;;;;;;12.30;3.38;;;;;;;16.31;38.42;103268.06;5039368;28;20057;-74
2021/04/23 10:25:32;;;;;;;10.65;4.13;;;;;;;14.83;38.49;103271.09;5034441;28;20049;-73
2021/04/23 10:28:03;;;;;;;9.77;3.75;;;;;;;14.72;38.99;103270.31;5036254;28;20148;-74
2021/04/23 10:30:33;;;;;;;10.10;2.85;;;;;;;15.42;38.16;103278.41;5039526;28;22219;-75
2021/04/23 10:33:05;;;;;;;9.52;3.00;;;;;;;15.11;39.01;103273.44;5034487;28;20460;-75
2021/04/23 10:35:33;;;;;;;11.80;3.10;;;;;;;15.55;37.57;103271.94;5039869;28;20175;-74
2021/04/23 10:38:02;;;;;;;8.25;3.13;;;;;;;15.36;37.33;103267.72;5035025;28;20056;-75
2021/04/23 10:40:33;;;;;;;9.57;2.65;;;;;;;15.63;36.60;103263.75;5040011;28;20087;-73
2021/04/23 10:43:04;;;;;;;9.25;3.28;;;;;;;14.82;36.83;103268.41;5033909;28;20060;-74
2021/04/23 10:45:36;;;;;;;7.05;2.80;;;;;;;15.78;36.30;103263.56;5039578;28;20067;-74
2021/04/23 10:48:20;;;;;;;9.82;2.78;;;;;;;15.50;35.31;103269.31;5035173;28;20065;-72
2021/04/23 10:50:50;;;;;;;9.18;3.00;;;;;;;14.78;36.61;103264.88;5036818;28;20175;-73
2021/04/23 10:53:18;;;;;;;6.47;2.88;;;;;;;14.60;37.19;103255.19;5035117;28;20057;-75
2021/04/23 10:55:48;;;;;;;9.75;3.20;;;;;;;14.21;38.33;103260.03;5039510;28;20260;-74
2021/04/23 10:58:18;;;;;;;5.78;3.03;;;;;;;14.19;39.10;103257.34;5032035;28;20049;-74
2021/04/23 11:00:47;;;;;;;7.10;2.67;;;;;;;15.13;36.29;103252.78;5040664;28;20061;-73
2021/04/23 11:03:30;;;;;;;9.27;3.00;;;;;;;15.21;36.34;103256.28;5033202;28;20060;-74
2021/04/23 11:05:59;;;;;;;7.95;2.85;;;;;;;15.39;36.92;103260.53;5039565;28;20084;-74
2021/04/23 11:08:28;;;;;;;6.00;2.85;;;;;;;15.17;37.38;103256.31;5037386;28;20092;-76
2021/04/23 11:11:15;;;;;;;6.75;2.70;;;;;;;15.14;37.17;103249.19;5038919;28;20125;-73
2021/04/23 11:13:48;;;;;;;8.80;2.78;;;;;;;13.99;39.39;103252.16;5036703;28;20061;-74
2021/04/23 11:16:31;;;;;;;13.13;3.55;;;;;;;15.05;38.37;103238.53;5035669;28;20138;-73
2021/04/23 11:19:18;;;;;;;10.85;3.17;;;;;;;14.61;37.90;103239.97;5039928;28;20049;-74
2021/04/23 11:21:45;;;;;;;8.15;2.80;;;;;;;15.39;37.43;103244.38;5040172;28;20061;-74
2021/04/23 11:24:15;;;;;;;10.90;3.03;;;;;;;15.69;36.62;103247.53;5035682;28;20064;-74
2021/04/23 11:27:07;;;;;;;6.45;2.80;;;;;;;14.76;37.73;103247.84;5032497;28;20088;-74
2021/04/23 11:29:41;;;;;;;10.25;3.30;;;;;;;15.32;37.27;103242.66;5036435;28;20064;-74
2021/04/23 11:32:13;;;;;;;12.88;2.90;;;;;;;15.55;35.94;103244.16;5035772;28;20068;-73